Time;durP1;ratioP1;P1;durP2;ratioP2;P2;SDS_P1;SDS_P2;PMS_P1;PMS_P2;Temp;Humidity;BMP_temperature;BMP_pressure;BME280_temperature;BME280_humidity;BME280_pressure;Samples;Min_cycle;Max_cycle;Signal;HPM_P1;HPM_P2
2021/06/08 00:01:49;;;;;;;6.37;3.20;;;;;;;15.41;73.20;99106.63;1641970;85;21539;-90
2021/06/08 00:04:16;;;;;;;5.58;2.72;;;;;;;15.38;73.89;99107.22;1655224;85;20994;-91
2021/06/08 00:06:43;;;;;;;6.05;3.10;;;;;;;15.39;73.34;99104.53;1655111;87;21076;-90
2021/06/08 00:09:09;;;;;;;6.15;2.87;;;;;;;15.41;75.45;99105.78;1662605;85;21475;-90
2021/06/08 00:11:36;;;;;;;5.42;3.05;;;;;;;15.39;72.73;99105.00;1665889;85;21010;-90
2021/06/08 00:14:02;;;;;;;7.28;3.15;;;;;;;15.34;74.10;99106.53;1627014;87;21088;-91
2021/06/08 00:16:29;;;;;;;9.03;3.37;;;;;;;15.34;74.60;99108.27;1655106;87;21019;-91
2021/06/08 00:18:56;;;;;;;8.75;3.52;;;;;;;15.35;74.68;99106.06;1675119;85;21003;-90
2021/06/08 00:21:23;;;;;;;7.65;3.30;;;;;;;15.33;74.43;99107.90;1656336;85;21055;-91
2021/06/08 00:23:49;;;;;;;8.98;3.25;;;;;;;15.30;76.35;99100.57;1647391;86;21069;-91
2021/06/08 00:26:15;;;;;;;6.22;3.20;;;;;;;15.28;76.40;99089.31;1633932;86;21576;-92
2021/06/08 00:28:42;;;;;;;5.97;3.30;;;;;;;15.26;73.32;99094.20;1634027;88;21049;-91
2021/06/08 00:31:08;;;;;;;5.40;3.40;;;;;;;15.19;75.03;99100.18;1667767;86;21011;-91
2021/06/08 00:33:35;;;;;;;12.90;3.47;;;;;;;15.16;76.09;99096.41;1652245;87;21015;-91
2021/06/08 00:36:02;;;;;;;5.65;3.25;;;;;;;15.13;76.81;99100.45;1634497;88;21064;-91
2021/06/08 00:38:29;;;;;;;5.78;3.25;;;;;;;15.10;75.15;99097.52;1652633;86;21469;-91
2021/06/08 00:40:55;;;;;;;11.83;3.67;;;;;;;15.07;74.78;99096.80;1634920;88;21108;-91
2021/06/08 00:43:25;;;;;;;9.13;3.92;;;;;;;15.03;74.37;99086.06;1650671;86;21066;-93
2021/06/08 00:45:53;;;;;;;6.95;3.98;;;;;;;14.98;74.87;99078.42;1634718;88;21023;-91
2021/06/08 00:48:21;;;;;;;6.28;3.20;;;;;;;14.91;77.51;99078.28;1634068;88;21490;-91
2021/06/08 00:50:48;;;;;;;7.00;3.25;;;;;;;14.82;75.08;99079.54;1633966;88;21082;-90
2021/06/08 00:53:15;;;;;;;7.83;3.30;;;;;;;14.78;74.95;99078.41;1634531;86;21062;-93
2021/06/08 00:55:42;;;;;;;7.20;3.42;;;;;;;14.72;74.01;99084.75;1706026;84;21015;-91
2021/06/08 00:58:09;;;;;;;8.78;3.90;;;;;;;14.68;74.09;99080.56;1690564;84;20987;-89
2021/06/08 01:00:36;;;;;;;5.20;3.70;;;;;;;14.66;75.25;99081.08;1682394;84;21114;-91
2021/06/08 01:03:04;;;;;;;7.20;3.58;;;;;;;14.66;76.47;99085.01;1682209;85;21026;-91
2021/06/08 01:05:30;;;;;;;7.60;3.37;;;;;;;14.67;76.76;99084.11;1682298;84;21008;-92
2021/06/08 01:07:57;;;;;;;9.50;3.05;;;;;;;14.68;77.84;99092.33;1682264;84;21030;-91
2021/06/08 01:10:24;;;;;;;7.15;3.35;;;;;;;14.70;76.08;99091.81;1652001;86;21031;-90
2021/06/08 01:12:51;;;;;;;6.20;3.25;;;;;;;14.71;76.63;99094.84;1644113;86;21450;-91
2021/06/08 01:15:17;;;;;;;6.58;3.08;;;;;;;14.71;76.00;99094.84;1706204;84;21011;-91
2021/06/08 01:17:44;;;;;;;8.65;3.30;;;;;;;14.73;76.18;99102.16;1643868;87;20990;-90
2021/06/08 01:20:12;;;;;;;12.15;3.98;;;;;;;14.73;76.47;99107.86;1634316;88;21099;-91
2021/06/08 01:22:39;;;;;;;16.25;3.90;;;;;;;14.73;76.87;99107.40;1635725;86;21065;-91
2021/06/08 01:25:06;;;;;;;8.85;3.58;;;;;;;14.71;77.65;99111.84;1634293;86;21051;-90
2021/06/08 01:27:34;;;;;;;14.00;3.17;;;;;;;14.69;76.67;99107.97;1634406;86;21013;-90
2021/06/08 01:30:01;;;;;;;8.85;3.30;;;;;;;14.70;76.73;99111.00;1634070;87;21810;-90
2021/06/08 01:32:30;;;;;;;8.30;3.50;;;;;;;14.70;77.06;99120.59;1634414;87;21091;-91
2021/06/08 01:34:57;;;;;;;6.55;3.33;;;;;;;14.65;77.46;99114.72;1638028;87;21033;-85
2021/06/08 01:37:24;;;;;;;7.97;3.40;;;;;;;14.63;77.46;99116.08;1598437;89;21029;-87
2021/06/08 01:39:52;;;;;;;6.28;3.40;;;;;;;14.59;77.48;99107.13;1632286;86;21045;-91
2021/06/08 01:42:19;;;;;;;8.80;3.67;;;;;;;14.57;76.81;99112.88;1703517;84;20958;-91
2021/06/08 01:44:46;;;;;;;8.23;3.65;;;;;;;14.49;74.72;99114.47;1703701;84;20991;-91
2021/06/08 01:47:14;;;;;;;6.95;3.42;;;;;;;14.43;76.32;99110.80;1685987;84;21011;-91
2021/06/08 01:49:41;;;;;;;8.78;3.45;;;;;;;14.39;76.73;99108.75;1667133;86;21553;-91
2021/06/08 01:52:28;;;;;;;4.92;3.40;;;;;;;14.36;76.91;99108.02;1651944;85;21519;-92
2021/06/08 01:55:09;;;;;;;6.12;3.85;;;;;;;14.29;80.19;99109.58;1651850;87;21521;-91
2021/06/08 01:57:40;;;;;;;6.17;3.52;;;;;;;14.24;76.33;99115.90;1667077;85;21059;-90
2021/06/08 02:00:17;;;;;;;9.98;3.85;;;;;;;14.16;75.96;99125.81;1708628;83;20995;-90
2021/06/08 02:03:13;;;;;;;9.58;3.65;;;;;;;14.11;76.91;99128.62;1692539;84;20956;-93
2021/06/08 02:06:18;;;;;;;7.10;3.60;;;;;;;14.06;77.22;99128.77;1688998;84;21043;-91
2021/06/08 02:09:08;;;;;;;5.40;3.27;;;;;;;14.03;76.65;99121.06;1676398;85;20999;-92
2021/06/08 02:12:04;;;;;;;7.78;3.87;;;;;;;14.01;76.99;99129.42;1681656;85;21027;-91
2021/06/08 02:14:41;;;;;;;6.65;3.58;;;;;;;13.98;76.64;99122.15;1681844;85;21003;-89
2021/06/08 02:17:24;;;;;;;7.60;3.15;;;;;;;13.93;75.91;99119.72;1681965;85;20983;-90
2021/06/08 02:19:55;;;;;;;9.75;3.20;;;;;;;13.90;77.59;99119.83;1651805;86;21121;-91
2021/06/08 02:22:25;;;;;;;5.58;3.30;;;;;;;13.89;77.03;99122.91;1633697;87;21589;-91
2021/06/08 02:24:52;;;;;;;8.03;3.12;;;;;;;13.91;78.16;99122.85;1615695;88;21014;-91
2021/06/08 02:27:23;;;;;;;6.60;3.20;;;;;;;13.89;79.76;99132.05;1633917;88;21032;-92
2021/06/08 02:29:52;;;;;;;8.45;3.37;;;;;;;13.84;81.04;99132.66;1625112;88;21026;-91
2021/06/08 02:32:20;;;;;;;6.95;3.20;;;;;;;13.87;79.52;99140.87;1607750;88;21053;-91
2021/06/08 02:34:48;;;;;;;7.92;3.37;;;;;;;13.87;80.37;99135.64;1629490;88;21055;-92
2021/06/08 02:37:17;;;;;;;6.37;3.20;;;;;;;13.91;78.49;99133.30;1631682;88;21049;-91
2021/06/08 02:39:44;;;;;;;7.12;3.42;;;;;;;13.94;79.77;99141.01;1627672;88;21120;-90
2021/06/08 02:42:13;;;;;;;8.75;3.22;;;;;;;13.95;79.04;99141.42;1605110;88;20989;-91
2021/06/08 02:44:41;;;;;;;8.10;3.30;;;;;;;13.96;78.94;99139.19;1634244;88;21026;-91
2021/06/08 02:47:08;;;;;;;6.05;3.20;;;;;;;13.96;77.76;99142.27;1613867;88;21504;-92
2021/06/08 02:49:35;;;;;;;8.13;3.50;;;;;;;13.90;77.93;99139.42;1631701;87;21561;-91
2021/06/08 02:52:03;;;;;;;6.58;3.60;;;;;;;13.85;77.77;99144.84;1609017;88;21088;-91
2021/06/08 02:54:30;;;;;;;10.60;3.62;;;;;;;13.79;77.51;99152.06;1621909;88;21043;-91
2021/06/08 02:56:58;;;;;;;11.95;3.87;;;;;;;13.76;78.49;99152.16;1630494;88;21040;-91
2021/06/08 02:59:28;;;;;;;15.30;3.52;;;;;;;13.76;77.86;99154.78;1627179;87;21111;-92
2021/06/08 03:01:57;;;;;;;7.83;3.67;;;;;;;13.76;77.89;99152.16;1630211;87;21508;-91
2021/06/08 03:04:28;;;;;;;8.28;3.52;;;;;;;13.73;79.03;99147.91;1618249;87;21053;-92
2021/06/08 03:06:57;;;;;;;9.00;3.60;;;;;;;13.72;77.71;99153.57;1609073;88;21085;-92
2021/06/08 03:09:40;;;;;;;13.05;3.35;;;;;;;13.74;77.74;99152.22;1620060;87;21078;-91
2021/06/08 03:12:11;;;;;;;10.25;3.83;;;;;;;13.75;77.85;99155.24;1582412;88;21088;-90
2021/06/08 03:14:42;;;;;;;7.05;3.42;;;;;;;13.77;78.86;99153.85;1626579;87;21053;-90
2021/06/08 03:17:11;;;;;;;9.38;3.83;;;;;;;13.78;78.53;99159.03;1627148;87;21034;-91
2021/06/08 03:19:41;;;;;;;5.85;3.12;;;;;;;13.80;79.18;99158.98;1601022;89;21110;-92
2021/06/08 03:22:13;;;;;;;15.10;4.83;;;;;;;13.81;79.74;99155.47;1643070;85;21025;-91
2021/06/08 03:24:42;;;;;;;8.05;3.72;;;;;;;13.84;78.50;99157.95;1659413;85;20971;-91
2021/06/08 03:27:11;;;;;;;9.43;4.17;;;;;;;13.87;78.76;99163.08;1669101;85;21077;-88
2021/06/08 03:29:38;;;;;;;7.70;4.17;;;;;;;13.91;79.42;99162.05;1642599;85;21132;-90
2021/06/08 03:32:06;;;;;;;15.83;4.40;;;;;;;13.94;79.32;99159.30;1680273;85;20979;-91
2021/06/08 03:34:36;;;;;;;12.68;4.42;;;;;;;13.99;79.69;99164.38;1671858;85;21025;-91
2021/06/08 03:37:04;;;;;;;11.57;4.05;;;;;;;14.04;79.43;99171.58;1653997;85;20994;-90
2021/06/08 03:39:32;;;;;;;9.70;3.67;;;;;;;14.07;79.34;99168.39;1652712;87;21090;-91
2021/06/08 03:41:58;;;;;;;9.30;3.90;;;;;;;14.11;79.71;99179.13;1650179;86;21049;-91
2021/06/08 03:44:26;;;;;;;13.10;4.45;;;;;;;14.16;80.65;99174.17;1652457;87;21015;-91
2021/06/08 03:46:54;;;;;;;9.05;4.08;;;;;;;14.21;80.61;99176.17;1657861;85;20987;-92
2021/06/08 03:49:22;;;;;;;6.00;3.70;;;;;;;14.24;79.43;99176.88;1637692;87;21541;-90
2021/06/08 03:51:54;;;;;;;11.08;3.85;;;;;;;14.31;79.60;99175.74;1629127;87;21093;-92
2021/06/08 03:54:22;;;;;;;9.43;3.67;;;;;;;14.37;79.65;99177.73;1652443;87;21059;-90
2021/06/08 03:56:53;;;;;;;8.33;3.45;;;;;;;14.46;78.97;99183.89;1654789;85;21013;-91
2021/06/08 03:59:25;;;;;;;8.45;3.58;;;;;;;14.51;78.06;99189.81;1668681;85;21033;-92
2021/06/08 04:01:53;;;;;;;11.68;3.45;;;;;;;14.55;77.35;99189.23;1646684;86;21010;-91
2021/06/08 04:04:21;;;;;;;8.05;3.85;;;;;;;14.57;76.99;99181.75;1673140;85;21451;-90
2021/06/08 04:06:49;;;;;;;20.17;4.37;;;;;;;14.62;76.83;99185.47;1660881;85;21044;-91
2021/06/08 04:09:17;;;;;;;7.75;3.87;;;;;;;14.67;76.76;99187.46;1652186;87;21081;-91
2021/06/08 04:11:48;;;;;;;7.92;3.40;;;;;;;14.68;75.73;99182.61;1655059;86;21033;-91
2021/06/08 04:14:15;;;;;;;9.88;4.12;;;;;;;14.72;76.09;99184.19;1652219;87;20983;-91
2021/06/08 04:16:42;;;;;;;6.65;3.98;;;;;;;14.79;75.86;99186.95;1665478;85;21013;-92
2021/06/08 04:19:11;;;;;;;7.55;4.17;;;;;;;14.85;75.19;99185.86;1655245;87;21060;-91
2021/06/08 04:21:38;;;;;;;8.63;3.80;;;;;;;14.88;74.36;99184.41;1641745;87;21126;-92
2021/06/08 04:24:07;;;;;;;11.43;4.00;;;;;;;14.89;75.30;99184.81;1621790;87;21041;-91
2021/06/08 04:26:34;;;;;;;13.15;4.03;;;;;;;14.97;75.28;99181.89;1623450;87;21124;-91
2021/06/08 04:29:01;;;;;;;9.95;4.45;;;;;;;15.01;75.49;99183.00;1629708;87;21092;-91
2021/06/08 04:31:28;;;;;;;8.20;4.47;;;;;;;15.06;74.97;99188.91;1639828;86;21091;-90
2021/06/08 04:33:54;;;;;;;9.48;4.20;;;;;;;15.12;75.04;99178.63;1616271;89;21568;-91
2021/06/08 04:36:24;;;;;;;13.03;4.50;;;;;;;15.15;75.14;99187.66;1636839;87;20990;-92
2021/06/08 04:38:49;;;;;;;9.28;3.50;;;;;;;15.19;73.63;99182.67;1626422;87;21105;-91
2021/06/08 04:41:16;;;;;;;9.28;3.87;;;;;;;15.22;73.66;99186.48;1626549;88;21540;-92
2021/06/08 04:43:42;;;;;;;12.93;6.17;;;;;;;15.27;74.26;99185.81;1626573;87;21098;-91
2021/06/08 04:46:12;;;;;;;7.72;4.08;;;;;;;15.38;74.13;99187.11;1643094;87;21005;-91
2021/06/08 04:48:41;;;;;;;10.25;4.45;;;;;;;15.50;73.90;99181.37;1643634;87;21053;-91
2021/06/08 04:51:08;;;;;;;8.03;3.87;;;;;;;15.57;73.78;99180.63;1642659;87;21040;-91
2021/06/08 04:53:35;;;;;;;10.05;4.28;;;;;;;15.60;74.04;99183.13;1643900;87;21000;-92
2021/06/08 04:56:03;;;;;;;10.32;3.92;;;;;;;15.71;73.80;99184.79;1626968;88;20998;-91
2021/06/08 04:58:29;;;;;;;10.13;3.83;;;;;;;15.82;73.64;99184.36;1626824;87;21540;-92
2021/06/08 05:01:13;;;;;;;7.92;4.42;;;;;;;15.96;73.35;99181.95;1626968;88;21082;-86
2021/06/08 05:03:48;;;;;;;11.63;4.33;;;;;;;16.04;73.04;99187.69;1622602;87;21015;-91
2021/06/08 05:06:22;;;;;;;8.33;4.22;;;;;;;16.11;72.60;99188.25;1644572;87;21043;-91
2021/06/08 05:08:59;;;;;;;9.73;4.28;;;;;;;16.23;72.47;99185.52;1658754;86;20992;-91
2021/06/08 05:11:40;;;;;;;7.75;4.12;;;;;;;16.33;72.24;99184.63;1644513;87;21015;-90
2021/06/08 05:14:08;;;;;;;7.97;4.92;;;;;;;16.42;71.91;99181.58;1627392;88;21044;-91
2021/06/08 05:16:39;;;;;;;7.67;4.55;;;;;;;16.54;71.65;99182.30;1626356;87;21040;-92
2021/06/08 05:19:06;;;;;;;8.63;4.33;;;;;;;16.62;71.69;99176.21;1643747;87;21036;-91
2021/06/08 05:21:35;;;;;;;13.38;4.83;;;;;;;16.72;71.67;99179.24;1634319;86;21093;-92
2021/06/08 05:24:04;;;;;;;14.40;4.40;;;;;;;16.84;71.38;99180.45;1659796;86;21089;-90
2021/06/08 05:26:33;;;;;;;10.45;4.40;;;;;;;16.96;71.34;99177.20;1648078;85;21932;-91
2021/06/08 05:29:00;;;;;;;9.13;4.37;;;;;;;17.04;70.91;99180.30;1655304;85;21045;-91
2021/06/08 05:31:27;;;;;;;13.00;4.50;;;;;;;17.15;70.59;99177.14;1657307;85;21061;-91
2021/06/08 05:33:57;;;;;;;9.90;4.70;;;;;;;17.26;70.39;99177.42;1668993;85;21048;-90
2021/06/08 05:36:32;;;;;;;14.50;5.90;;;;;;;17.33;69.63;99175.35;1659013;83;21021;-90
2021/06/08 05:39:00;;;;;;;9.80;4.17;;;;;;;17.40;69.75;99173.25;1656964;85;20965;-89
2021/06/08 05:41:28;;;;;;;9.78;3.52;;;;;;;17.51;69.47;99180.12;1645526;85;21039;-89
2021/06/08 05:43:55;;;;;;;12.28;4.33;;;;;;;17.62;68.99;99184.33;1676317;85;21126;-89
2021/06/08 05:46:22;;;;;;;13.48;3.65;;;;;;;17.74;68.47;99174.10;1653953;85;20973;-84
2021/06/08 05:48:49;;;;;;;11.05;3.12;;;;;;;17.84;67.78;99171.39;1656973;86;21132;-88
2021/06/08 05:51:15;;;;;;;5.97;3.45;;;;;;;17.91;66.81;99174.09;1659022;85;21634;-91
2021/06/08 05:53:45;;;;;;;7.53;3.30;;;;;;;17.98;65.37;99176.75;1649741;87;21109;-90
2021/06/08 05:56:13;;;;;;;9.65;3.60;;;;;;;18.06;65.19;99168.00;1652615;87;20997;-90
2021/06/08 05:58:40;;;;;;;10.28;3.67;;;;;;;18.17;65.97;99176.61;1656760;85;20980;-91
2021/06/08 06:01:10;;;;;;;7.75;3.60;;;;;;;18.26;64.50;99179.19;1667918;85;21068;-89
2021/06/08 06:03:39;;;;;;;13.78;4.22;;;;;;;18.36;65.83;99174.27;1652504;87;21057;-91
2021/06/08 06:06:07;;;;;;;7.97;3.92;;;;;;;18.47;65.45;99177.16;1660806;85;21017;-90
2021/06/08 06:08:34;;;;;;;6.92;3.75;;;;;;;18.57;64.88;99176.17;1661004;85;21070;-89
2021/06/08 06:11:04;;;;;;;9.93;3.87;;;;;;;18.62;62.91;99176.30;1650568;87;21032;-90
2021/06/08 06:13:46;;;;;;;8.95;3.75;;;;;;;18.67;63.81;99174.23;1651994;85;21604;-89
2021/06/08 06:16:13;;;;;;;15.95;4.90;;;;;;;18.76;63.54;99166.73;1643383;85;20997;-89
2021/06/08 06:18:39;;;;;;;9.98;4.20;;;;;;;18.88;63.86;99168.72;1651961;85;21085;-90
2021/06/08 06:21:06;;;;;;;9.83;3.95;;;;;;;18.98;63.38;99169.87;1657950;84;21480;-92
2021/06/08 06:23:34;;;;;;;15.23;3.95;;;;;;;19.02;62.80;99169.20;1653959;85;21037;-79
2021/06/08 06:26:03;;;;;;;12.18;3.92;;;;;;;19.11;62.01;99168.66;1655297;85;21049;-78
2021/06/08 06:28:30;;;;;;;8.55;3.37;;;;;;;19.21;62.47;99166.34;1658052;85;21023;-78
2021/06/08 06:30:57;;;;;;;6.75;3.17;;;;;;;19.31;61.48;99158.73;1652860;85;21054;-78
2021/06/08 06:33:24;;;;;;;5.50;3.30;;;;;;;19.45;62.40;99160.06;1649933;85;21244;-82
2021/06/08 06:35:51;;;;;;;7.62;3.33;;;;;;;19.58;61.67;99160.17;1643139;85;21086;-78
2021/06/08 06:38:19;;;;;;;15.23;8.93;;;;;;;19.69;61.59;99152.43;1640404;85;21058;-80
2021/06/08 06:43:02;;;;;;;14.55;4.25;;;;;;;19.89;59.61;99156.50;1795216;78;22788;-82
2021/06/08 06:45:29;;;;;;;6.90;3.47;;;;;;;19.89;58.42;99164.89;1737914;80;21110;-78
2021/06/08 06:48:04;;;;;;;9.18;3.47;;;;;;;19.96;59.72;99149.07;1765295;80;21090;-82
2021/06/08 06:50:34;;;;;;;10.35;3.20;;;;;;;20.00;59.01;99138.69;1776468;80;20969;-84
2021/06/08 06:53:01;;;;;;;9.08;3.55;;;;;;;20.10;58.87;99150.36;1774200;80;21099;-83
2021/06/08 06:55:29;;;;;;;10.80;3.77;;;;;;;20.19;59.23;99148.91;1778386;80;21066;-79
2021/06/08 06:57:57;;;;;;;9.48;3.20;;;;;;;20.33;57.79;99150.19;1777115;80;21016;-78
2021/06/08 07:00:27;;;;;;;6.45;2.92;;;;;;;20.43;58.70;99142.07;1777120;80;21072;-78
2021/06/08 07:02:57;;;;;;;11.60;3.60;;;;;;;20.62;58.90;99138.25;1775045;80;21425;-84
2021/06/08 07:05:28;;;;;;;6.60;3.05;;;;;;;20.79;58.13;99139.75;1773528;80;21067;-79
2021/06/08 07:07:56;;;;;;;12.03;3.30;;;;;;;20.95;58.06;99135.16;1769280;80;21092;-79
2021/06/08 07:10:26;;;;;;;8.38;3.15;;;;;;;21.09;57.60;99138.20;1775837;80;21019;-81
2021/06/08 07:12:55;;;;;;;16.48;3.77;;;;;;;21.13;56.96;99119.85;1778426;80;21011;-80
2021/06/08 07:15:28;;;;;;;7.67;3.40;;;;;;;21.31;55.07;99135.38;1765248;80;21025;-79
2021/06/08 07:17:55;;;;;;;8.03;3.30;;;;;;;21.37;55.67;99133.67;1769656;79;21597;-80
2021/06/08 07:20:25;;;;;;;19.62;5.20;;;;;;;21.42;53.45;99134.17;1773492;80;21161;-78
2021/06/08 07:22:52;;;;;;;7.00;4.25;;;;;;;21.51;54.67;99127.45;1780373;80;21018;-82
2021/06/08 07:25:21;;;;;;;7.50;3.60;;;;;;;21.59;54.57;99126.44;1749041;81;21041;-78
2021/06/08 07:27:49;;;;;;;7.25;3.10;;;;;;;21.61;53.87;99128.50;1773545;80;21012;-78
2021/06/08 07:30:17;;;;;;;10.15;3.12;;;;;;;21.70;53.55;99134.44;1782723;80;21553;-76
2021/06/08 07:33:02;;;;;;;9.43;3.40;;;;;;;21.76;52.45;99124.75;1774410;80;21061;-77
2021/06/08 07:35:55;;;;;;;7.12;3.02;;;;;;;21.88;53.87;99120.38;1777189;80;22282;-79
2021/06/08 07:38:56;;;;;;;5.58;3.08;;;;;;;22.01;52.15;99119.88;1781142;80;22036;-78
2021/06/08 07:41:44;;;;;;;5.08;2.62;;;;;;;22.15;51.99;99122.86;1775619;80;21801;-80
2021/06/08 07:44:25;;;;;;;7.78;3.25;;;;;;;22.18;51.14;99124.42;1772336;80;21829;-78
2021/06/08 07:46:53;;;;;;;4.20;2.60;;;;;;;22.30;53.14;99120.08;1767586;80;21709;-78
2021/06/08 07:49:22;;;;;;;6.53;3.10;;;;;;;22.38;51.67;99125.20;1761488;80;21142;-83
2021/06/08 07:51:50;;;;;;;7.95;2.95;;;;;;;22.24;50.85;99088.27;1768237;80;21087;-80
2021/06/08 07:54:20;;;;;;;4.08;2.67;;;;;;;22.50;51.65;99119.47;1740240;80;21075;-79
2021/06/08 07:56:47;;;;;;;5.15;2.70;;;;;;;22.60;50.04;99122.25;1761579;80;21043;-80
2021/06/08 07:59:15;;;;;;;6.20;3.10;;;;;;;22.71;50.86;99122.80;1734524;80;22020;-79
2021/06/08 08:01:43;;;;;;;6.33;2.98;;;;;;;22.80;51.12;99126.06;1766673;80;21507;-81
2021/06/08 08:04:11;;;;;;;5.62;2.65;;;;;;;22.92;50.26;99125.63;1761858;80;21065;-79
2021/06/08 08:06:38;;;;;;;5.72;2.72;;;;;;;22.97;50.46;99129.62;1760337;80;21503;-79
2021/06/08 08:09:05;;;;;;;6.95;2.90;;;;;;;23.07;48.72;99124.49;1763035;80;21027;-78
2021/06/08 08:11:33;;;;;;;6.15;2.85;;;;;;;23.13;49.54;99127.16;1767405;80;21497;-77
2021/06/08 08:14:03;;;;;;;5.30;3.08;;;;;;;23.06;47.95;99120.17;1704753;83;21092;-78
2021/06/08 08:16:29;;;;;;;11.08;3.60;;;;;;;22.95;46.45;99121.42;1770088;80;21041;-77
2021/06/08 08:18:58;;;;;;;5.25;2.67;;;;;;;23.01;48.84;99110.34;1761379;80;21627;-79
2021/06/08 08:21:24;;;;;;;8.78;2.80;;;;;;;23.02;48.36;99114.73;1764491;80;21519;-78
2021/06/08 08:23:51;;;;;;;7.22;3.75;;;;;;;23.13;49.35;99116.55;1770446;80;21125;-77
2021/06/08 08:26:17;;;;;;;7.12;2.92;;;;;;;23.24;47.42;99113.94;1765812;80;21023;-79
2021/06/08 08:28:47;;;;;;;8.60;2.85;;;;;;;23.21;48.72;99105.70;1775673;80;21071;-79
2021/06/08 08:31:19;;;;;;;5.62;2.80;;;;;;;23.28;47.60;99103.91;1712436;83;21017;-80
2021/06/08 08:33:46;;;;;;;6.95;2.83;;;;;;;23.23;46.42;99107.77;1765722;80;21519;-80
2021/06/08 08:36:14;;;;;;;8.03;3.35;;;;;;;23.29;47.83;99097.16;1764043;80;20985;-81
2021/06/08 08:38:41;;;;;;;5.72;3.10;;;;;;;23.32;48.03;99102.24;1755627;80;21106;-79
2021/06/08 08:41:09;;;;;;;6.12;3.17;;;;;;;23.40;48.10;99095.85;1763240;80;21000;-79
2021/06/08 08:43:36;;;;;;;6.67;3.02;;;;;;;23.52;46.29;99102.50;1762999;81;21028;-78
2021/06/08 08:46:03;;;;;;;10.13;3.00;;;;;;;23.47;46.92;99097.53;1754133;81;21607;-79
2021/06/08 08:48:31;;;;;;;5.97;2.95;;;;;;;23.54;47.69;99096.59;1762183;80;21015;-78
2021/06/08 08:50:59;;;;;;;8.83;3.25;;;;;;;23.65;47.53;99095.23;1691301;84;21059;-79
2021/06/08 08:53:26;;;;;;;4.65;2.80;;;;;;;23.77;47.16;99088.11;1707131;83;21151;-82
2021/06/08 08:55:53;;;;;;;8.35;2.52;;;;;;;23.91;47.52;99098.98;1704475;83;21052;-79
2021/06/08 08:58:20;;;;;;;4.87;3.05;;;;;;;23.91;45.94;99094.51;1689538;83;21094;-79
2021/06/08 09:00:47;;;;;;;12.25;2.90;;;;;;;23.89;45.71;99095.61;1678542;84;20992;-79
2021/06/08 09:03:18;;;;;;;7.20;2.90;;;;;;;23.98;46.85;99093.55;1721113;83;21062;-81
2021/06/08 09:05:45;;;;;;;4.58;2.52;;;;;;;24.15;46.23;99090.84;1690105;83;21026;-78
2021/06/08 09:08:11;;;;;;;6.92;2.55;;;;;;;24.32;46.23;99085.00;1709191;83;20998;-77
2021/06/08 09:10:42;;;;;;;7.53;2.98;;;;;;;24.40;44.88;99083.88;1709157;83;21643;-78
2021/06/08 09:13:09;;;;;;;5.10;2.60;;;;;;;24.38;45.23;99082.33;1716961;83;21090;-80
2021/06/08 09:15:36;;;;;;;7.37;2.62;;;;;;;24.48;45.17;99082.41;1713020;83;21041;-78
2021/06/08 09:18:04;;;;;;;4.97;2.50;;;;;;;24.45;44.38;99081.32;1716689;82;21097;-77
2021/06/08 09:20:33;;;;;;;5.92;2.52;;;;;;;24.50;44.63;99077.34;1712266;83;21034;-78
2021/06/08 09:23:07;;;;;;;10.35;3.12;;;;;;;24.46;44.03;99081.70;1713546;82;21506;-79
2021/06/08 09:25:44;;;;;;;7.33;3.25;;;;;;;24.35;42.19;99068.82;1709322;83;21355;-77
2021/06/08 09:28:33;;;;;;;5.55;2.67;;;;;;;24.41;43.78;99066.98;1711761;83;21079;-77
2021/06/08 09:31:16;;;;;;;4.67;2.20;;;;;;;24.57;42.58;99068.37;1692355;83;21660;-80
2021/06/08 09:33:54;;;;;;;5.47;2.52;;;;;;;24.58;42.31;99066.08;1712250;83;21066;-78
2021/06/08 09:36:24;;;;;;;4.67;2.83;;;;;;;24.70;42.97;99062.88;1685884;84;21107;-81
2021/06/08 09:39:05;;;;;;;7.20;2.58;;;;;;;24.79;43.58;99061.63;1715723;81;21725;-76
2021/06/08 09:41:50;;;;;;;5.78;2.37;;;;;;;24.77;43.22;99057.39;1703215;83;21369;-78
2021/06/08 09:44:21;;;;;;;4.95;2.75;;;;;;;24.86;43.89;99058.44;1706498;83;21016;-78
2021/06/08 09:46:54;;;;;;;4.22;2.30;;;;;;;25.07;43.28;99052.62;1706243;83;21004;-77
2021/06/08 09:49:35;;;;;;;4.22;2.55;;;;;;;25.24;43.36;99048.52;1764641;80;20997;-78
2021/06/08 09:52:07;;;;;;;7.50;2.80;;;;;;;25.36;43.33;99047.95;1767629;80;21066;-79
2021/06/08 09:54:38;;;;;;;8.23;2.70;;;;;;;25.39;42.39;99041.88;1763916;80;21055;-78
2021/06/08 09:57:26;;;;;;;4.80;2.60;;;;;;;25.31;43.09;99050.19;1765029;80;21016;-78
2021/06/08 10:00:03;;;;;;;4.87;2.60;;;;;;;25.27;42.18;99039.42;1764179;80;22067;-78
2021/06/08 10:02:45;;;;;;;8.00;2.37;;;;;;;25.37;42.27;99050.48;1764460;80;21031;-79
2021/06/08 10:05:30;;;;;;;6.83;2.67;;;;;;;25.30;42.02;99042.66;1764170;80;21071;-78
2021/06/08 10:08:05;;;;;;;6.58;2.47;;;;;;;25.39;42.41;99041.88;1767712;80;21094;-79
2021/06/08 10:10:39;;;;;;;5.70;2.62;;;;;;;25.31;41.79;99039.05;1765271;80;21044;-79
2021/06/08 10:13:09;;;;;;;4.42;2.90;;;;;;;25.46;42.66;99038.67;1758256;80;21009;-78
2021/06/08 10:15:43;;;;;;;6.45;2.72;;;;;;;25.54;40.96;99034.84;1742546;80;21343;-79
2021/06/08 10:18:10;;;;;;;4.80;2.58;;;;;;;25.67;41.64;99031.45;1755623;80;21038;-79
2021/06/08 10:20:42;;;;;;;6.85;2.72;;;;;;;25.87;42.18;99030.17;1763262;80;21549;-79
2021/06/08 10:23:28;;;;;;;6.87;2.52;;;;;;;26.08;41.68;99020.75;1762455;80;21027;-80
2021/06/08 10:25:59;;;;;;;5.92;2.30;;;;;;;26.29;41.72;99020.63;1761449;80;20993;-78
2021/06/08 10:28:28;;;;;;;5.10;2.20;;;;;;;26.45;39.26;99023.55;1764148;80;20989;-80
2021/06/08 10:30:57;;;;;;;7.28;2.40;;;;;;;26.58;38.74;99029.48;1752283;80;21060;-78
2021/06/08 10:33:25;;;;;;;4.22;2.40;;;;;;;26.50;38.09;99017.79;1763135;80;21050;-80
2021/06/08 10:35:53;;;;;;;8.63;2.17;;;;;;;26.59;37.11;99019.64;1757950;80;20999;-80
2021/06/08 10:38:21;;;;;;;4.58;2.17;;;;;;;26.78;39.30;99014.28;1760440;80;21518;-81
2021/06/08 10:40:53;;;;;;;4.42;2.20;;;;;;;27.03;39.06;99013.28;1759306;80;20997;-80
2021/06/08 10:43:27;;;;;;;4.67;2.00;;;;;;;27.17;38.93;99002.63;1760920;80;21008;-80
2021/06/08 10:45:56;;;;;;;5.53;2.08;;;;;;;27.26;38.19;99001.80;1764853;80;21000;-81
2021/06/08 10:48:41;;;;;;;4.85;2.55;;;;;;;27.25;35.33;99006.77;1768788;80;21452;-81
2021/06/08 10:51:14;;;;;;;6.47;2.40;;;;;;;27.25;36.09;99004.60;1763720;80;21072;-80
2021/06/08 10:53:53;;;;;;;3.85;2.30;;;;;;;27.11;34.79;99007.22;1738757;80;21057;-82
2021/06/08 10:56:33;;;;;;;6.47;2.12;;;;;;;26.99;34.55;98990.55;1763431;80;21028;-81
2021/06/08 10:59:05;;;;;;;4.95;2.02;;;;;;;26.93;35.84;98991.97;1767145;80;21126;-82
2021/06/08 11:01:39;;;;;;;5.97;2.00;;;;;;;26.99;35.70;98979.88;1766643;80;21603;-80
2021/06/08 11:04:23;;;;;;;5.87;2.10;;;;;;;26.99;33.19;98979.88;1765826;80;21566;-80
2021/06/08 11:06:59;;;;;;;9.33;2.30;;;;;;;27.03;34.44;98979.94;1724899;82;21031;-80
2021/06/08 11:09:33;;;;;;;9.80;4.60;;;;;;;27.23;35.44;98971.85;1702579;83;21305;-81
2021/06/08 11:12:11;;;;;;;4.95;3.00;;;;;;;27.35;33.98;98966.19;1713733;82;21056;-81
2021/06/08 11:14:46;;;;;;;4.53;2.22;;;;;;;27.50;35.32;98966.54;1757369;80;21100;-86
2021/06/08 11:17:24;;;;;;;4.65;2.00;;;;;;;27.73;35.29;98964.77;1768990;80;21559;-80
2021/06/08 11:20:13;;;;;;;5.25;1.90;;;;;;;27.75;33.67;98970.80;1760624;80;21623;-79
2021/06/08 11:22:50;;;;;;;7.05;2.05;;;;;;;27.93;35.43;98965.49;1766469;80;21090;-81
2021/06/08 11:25:43;;;;;;;7.35;2.08;;;;;;;28.11;31.57;98972.16;1760202;80;21096;-80
2021/06/08 11:28:15;;;;;;;4.92;1.70;;;;;;;28.21;32.89;98962.23;1758716;80;20952;-81
2021/06/08 11:30:48;;;;;;;5.08;2.10;;;;;;;28.19;32.08;98964.21;1758868;80;21002;-81
2021/06/08 11:33:32;;;;;;;3.15;1.98;;;;;;;28.14;32.77;98955.84;1768224;80;21028;-82
2021/06/08 11:36:24;;;;;;;4.08;1.80;;;;;;;28.05;30.46;98960.25;1757694;80;21003;-82
2021/06/08 11:38:54;;;;;;;3.42;1.72;;;;;;;28.29;29.99;98954.30;1770518;80;21003;-80
2021/06/08 11:41:22;;;;;;;3.17;1.70;;;;;;;28.30;31.23;98949.27;1762584;80;21044;-79
2021/06/08 11:43:58;;;;;;;4.05;1.70;;;;;;;28.62;31.66;98947.86;1770487;80;20995;-84
2021/06/08 11:46:29;;;;;;;3.15;1.70;;;;;;;29.01;31.89;98946.07;1737335;80;20999;-81
2021/06/08 11:49:13;;;;;;;5.03;1.75;;;;;;;29.41;29.60;98947.25;1756553;80;21522;-80
2021/06/08 11:52:05;;;;;;;4.45;1.90;;;;;;;29.68;30.30;98946.63;1766240;80;21059;-80